Time;durP1;ratioP1;P1;durP2;ratioP2;P2;SDS_P1;SDS_P2;PMS_P1;PMS_P2;Temp;Humidity;BMP_temperature;BMP_pressure;BME280_temperature;BME280_humidity;BME280_pressure;Samples;Min_cycle;Max_cycle;Signal;HPM_P1;HPM_P2
2023/09/02 00:01:03;;;;;;;43.35;31.45;;;;;;;;;;5030998;28;20032;-69
2023/09/02 00:03:29;;;;;;;59.42;41.45;;;;;;;;;;5031465;28;20436;-69
2023/09/02 00:05:55;;;;;;;55.70;37.80;;;;;;;;;;5031531;28;20104;-69
2023/09/02 00:08:21;;;;;;;47.60;33.67;;;;;;;;;;5031109;28;20215;-69
2023/09/02 00:10:47;;;;;;;54.83;36.65;;;;;;;;;;5031318;28;20053;-69
2023/09/02 00:13:13;;;;;;;43.67;31.73;;;;;;;;;;5031134;28;20091;-69
2023/09/02 00:15:41;;;;;;;52.83;37.95;;;;;;;;;;5030719;28;20108;-69
2023/09/02 00:18:07;;;;;;;54.92;37.83;;;;;;;;;;5031212;28;20033;-69
2023/09/02 00:20:33;;;;;;;50.20;37.53;;;;;;;;;;5031173;28;20026;-69
2023/09/02 00:22:59;;;;;;;48.42;34.65;;;;;;;;;;5030913;28;20021;-69
2023/09/02 00:25:25;;;;;;;50.00;34.58;;;;;;;;;;5031021;28;20025;-69
2023/09/02 00:27:52;;;;;;;52.92;35.55;;;;;;;;;;5031049;28;20036;-69
2023/09/02 00:30:18;;;;;;;48.33;32.88;;;;;;;;;;5030806;28;20464;-69
2023/09/02 00:32:44;;;;;;;46.70;32.75;;;;;;;;;;5030971;28;20044;-69
2023/09/02 00:35:10;;;;;;;50.13;34.17;;;;;;;;;;5031026;28;20032;-69
2023/09/02 00:37:36;;;;;;;48.35;33.45;;;;;;;;;;5031100;28;20076;-69
2023/09/02 00:40:02;;;;;;;49.67;34.85;;;;;;;;;;5031448;28;20025;-69
2023/09/02 00:42:29;;;;;;;52.10;36.92;;;;;;;;;;5030489;28;20116;-68
2023/09/02 00:44:55;;;;;;;48.42;35.55;;;;;;;;;;5030871;28;20029;-68
2023/09/02 00:47:21;;;;;;;52.25;33.90;;;;;;;;;;5031093;28;20032;-69
2023/09/02 00:49:48;;;;;;;49.92;35.03;;;;;;;;;;5030579;28;20503;-69
2023/09/02 00:52:14;;;;;;;55.33;38.50;;;;;;;;;;5030565;28;20371;-68
2023/09/02 00:54:40;;;;;;;57.67;38.60;;;;;;;;;;5030869;28;20030;-69
2023/09/02 00:57:06;;;;;;;48.67;34.53;;;;;;;;;;5030386;28;20392;-69
2023/09/02 00:59:33;;;;;;;52.47;35.88;;;;;;;;;;5030794;28;20029;-69
2023/09/02 01:02:01;;;;;;;49.35;34.05;;;;;;;;;;5032167;28;20025;-69
2023/09/02 01:04:28;;;;;;;48.63;35.53;;;;;;;;;;5034231;28;20025;-69
2023/09/02 01:06:55;;;;;;;46.17;30.20;;;;;;;;;;5034781;28;20079;-68
2023/09/02 01:09:21;;;;;;;47.40;33.40;;;;;;;;;;5034545;28;20025;-69
2023/09/02 01:11:47;;;;;;;46.85;33.63;;;;;;;;;;5034945;28;20080;-68
2023/09/02 01:14:14;;;;;;;51.70;35.85;;;;;;;;;;5034237;28;20091;-68
2023/09/02 01:16:40;;;;;;;51.85;34.97;;;;;;;;;;5034562;28;20105;-68
2023/09/02 01:19:08;;;;;;;54.70;33.72;;;;;;;;;;5034414;28;20057;-68
2023/09/02 01:21:47;;;;;;;55.85;35.50;;;;;;;;;;5016702;28;20049;-68
2023/09/02 01:24:16;;;;;;;52.70;36.35;;;;;;;;;;5034146;28;20037;-69
2023/09/02 01:27:02;;;;;;;50.50;33.47;;;;;;;;;;5034556;28;20530;-69
2023/09/02 01:29:29;;;;;;;49.75;31.48;;;;;;;;;;5033860;28;20037;-69
2023/09/02 01:31:55;;;;;;;47.95;32.08;;;;;;;;;;5033926;28;20029;-69
2023/09/02 01:34:22;;;;;;;52.00;33.15;;;;;;;;;;5034510;28;20025;-68
2023/09/02 01:36:50;;;;;;;52.33;34.10;;;;;;;;;;5034025;28;20441;-69
2023/09/02 01:39:17;;;;;;;52.17;33.50;;;;;;;;;;5033910;28;20032;-69
2023/09/02 01:41:44;;;;;;;64.60;40.38;;;;;;;;;;5034020;28;20554;-69
2023/09/02 01:44:11;;;;;;;56.50;34.97;;;;;;;;;;5034145;28;20022;-69
2023/09/02 01:46:38;;;;;;;55.33;34.90;;;;;;;;;;5033879;28;20138;-69
2023/09/02 01:49:04;;;;;;;71.38;42.38;;;;;;;;;;5033859;28;20021;-69
2023/09/02 01:51:31;;;;;;;57.97;35.70;;;;;;;;;;5033880;28;20030;-69
2023/09/02 01:53:57;;;;;;;49.35;31.10;;;;;;;;;;5033598;28;20079;-69
2023/09/02 01:56:23;;;;;;;56.70;35.17;;;;;;;;;;5033758;28;20025;-69
2023/09/02 01:58:49;;;;;;;53.83;33.88;;;;;;;;;;5033528;28;20056;-69
2023/09/02 02:01:15;;;;;;;55.00;33.65;;;;;;;;;;5033436;28;20037;-69
2023/09/02 02:03:50;;;;;;;52.50;33.38;;;;;;;;;;5033663;28;20034;-69
2023/09/02 02:06:16;;;;;;;66.68;39.50;;;;;;;;;;5033915;28;20060;-69
2023/09/02 02:08:44;;;;;;;62.00;35.70;;;;;;;;;;5033234;28;20033;-69
2023/09/02 02:11:12;;;;;;;56.83;35.20;;;;;;;;;;5033557;28;20155;-69
2023/09/02 02:13:38;;;;;;;55.42;34.33;;;;;;;;;;5032263;28;20473;-69
2023/09/02 02:16:04;;;;;;;57.80;35.13;;;;;;;;;;5033530;28;20029;-69
2023/09/02 02:18:31;;;;;;;54.80;31.98;;;;;;;;;;5033090;28;20030;-69
2023/09/02 02:21:01;;;;;;;53.38;31.77;;;;;;;;;;5033550;28;20021;-69
2023/09/02 02:23:27;;;;;;;55.65;31.10;;;;;;;;;;5032732;28;20021;-69
2023/09/02 02:25:53;;;;;;;61.00;33.78;;;;;;;;;;5033094;28;20399;-69
2023/09/02 02:28:19;;;;;;;59.78;33.42;;;;;;;;;;5015547;28;20387;-68
2023/09/02 02:30:45;;;;;;;59.72;33.90;;;;;;;;;;5032933;28;20034;-69
2023/09/02 02:33:11;;;;;;;46.63;26.67;;;;;;;;;;5033143;28;20042;-69
2023/09/02 02:35:37;;;;;;;58.08;32.40;;;;;;;;;;5033045;28;20026;-69
2023/09/02 02:38:03;;;;;;;78.10;35.90;;;;;;;;;;5032926;28;20026;-69
2023/09/02 02:40:29;;;;;;;52.42;29.35;;;;;;;;;;5033036;28;20117;-68
2023/09/02 02:42:55;;;;;;;65.05;36.58;;;;;;;;;;5032987;28;20443;-69
2023/09/02 02:45:21;;;;;;;67.03;34.90;;;;;;;;;;5032174;28;20029;-69
2023/09/02 02:47:47;;;;;;;72.38;36.08;;;;;;;;;;5032825;28;20446;-69
2023/09/02 02:50:13;;;;;;;89.38;40.15;;;;;;;;;;5032877;28;20025;-69
2023/09/02 02:52:39;;;;;;;75.20;39.00;;;;;;;;;;5032414;28;20034;-69
2023/09/02 02:55:06;;;;;;;82.47;40.47;;;;;;;;;;5032609;28;20030;-69
2023/09/02 02:57:32;;;;;;;67.18;35.33;;;;;;;;;;5032182;28;20072;-69
2023/09/02 02:59:58;;;;;;;75.97;38.55;;;;;;;;;;5032801;28;20021;-69
2023/09/02 03:02:24;;;;;;;84.40;40.05;;;;;;;;;;5032503;28;20029;-69
2023/09/02 03:04:50;;;;;;;81.75;40.08;;;;;;;;;;5032343;28;20033;-69
2023/09/02 03:07:16;;;;;;;91.22;43.35;;;;;;;;;;5032153;28;20064;-69
2023/09/02 03:09:42;;;;;;;77.43;40.55;;;;;;;;;;5032422;28;20432;-69
2023/09/02 03:12:08;;;;;;;79.53;41.13;;;;;;;;;;5014619;28;20403;-69
2023/09/02 03:14:34;;;;;;;69.60;37.20;;;;;;;;;;5031857;28;20060;-69
2023/09/02 03:17:00;;;;;;;86.88;41.92;;;;;;;;;;5032457;28;20025;-69
2023/09/02 03:19:26;;;;;;;85.68;43.30;;;;;;;;;;5031966;28;20022;-69
2023/09/02 03:21:53;;;;;;;106.18;45.17;;;;;;;;;;5032205;28;20025;-69
2023/09/02 03:24:18;;;;;;;89.80;44.75;;;;;;;;;;5031843;28;20030;-69
2023/09/02 03:26:45;;;;;;;93.07;43.30;;;;;;;;;;5032073;28;20079;-69
2023/09/02 03:29:11;;;;;;;89.10;42.70;;;;;;;;;;5032102;28;20499;-69
2023/09/02 03:31:37;;;;;;;87.05;44.20;;;;;;;;;;5031823;28;20021;-69
2023/09/02 03:34:03;;;;;;;93.07;45.85;;;;;;;;;;5031883;28;20033;-69
2023/09/02 03:36:29;;;;;;;93.75;41.97;;;;;;;;;;5031934;28;20034;-69
2023/09/02 03:38:55;;;;;;;93.05;43.28;;;;;;;;;;5031732;28;20052;-69
2023/09/02 03:41:23;;;;;;;125.63;45.40;;;;;;;;;;5031655;28;20407;-69
2023/09/02 03:43:49;;;;;;;95.20;44.35;;;;;;;;;;5031525;28;20052;-69
2023/09/02 03:46:15;;;;;;;98.38;45.08;;;;;;;;;;5031687;28;20032;-68
2023/09/02 03:48:41;;;;;;;100.38;46.55;;;;;;;;;;5031416;28;20029;-69
2023/09/02 03:51:12;;;;;;;110.55;41.53;;;;;;;;;;5032164;28;20025;-68
2023/09/02 03:53:38;;;;;;;86.85;42.10;;;;;;;;;;5031725;28;20045;-69
2023/09/02 03:56:04;;;;;;;118.38;45.72;;;;;;;;;;5031624;28;20029;-69
2023/09/02 03:58:30;;;;;;;101.78;43.22;;;;;;;;;;5030757;28;20673;-69
2023/09/02 04:00:57;;;;;;;274.67;53.13;;;;;;;;;;5031685;28;20022;-69
2023/09/02 04:03:24;;;;;;;94.97;43.50;;;;;;;;;;5031761;28;20086;-69
2023/09/02 04:05:50;;;;;;;73.72;33.88;;;;;;;;;;5031176;28;20022;-69
2023/09/02 04:08:18;;;;;;;80.13;39.05;;;;;;;;;;5031493;28;20029;-70
2023/09/02 04:10:44;;;;;;;88.18;37.63;;;;;;;;;;5031334;28;20463;-69
2023/09/02 04:13:10;;;;;;;102.38;41.72;;;;;;;;;;5031068;28;20038;-69
2023/09/02 04:15:36;;;;;;;78.45;39.63;;;;;;;;;;5030993;28;20052;-69
2023/09/02 04:18:03;;;;;;;136.13;44.17;;;;;;;;;;5031473;28;20021;-70
2023/09/02 04:20:29;;;;;;;160.57;43.35;;;;;;;;;;5031563;28;20064;-70
2023/09/02 04:22:55;;;;;;;91.82;42.20;;;;;;;;;;5031050;28;20029;-69
2023/09/02 04:25:21;;;;;;;114.72;45.28;;;;;;;;;;5030746;28;20025;-69
2023/09/02 04:27:47;;;;;;;46.92;26.35;;;;;;;;;;5031108;28;20029;-69
2023/09/02 04:30:13;;;;;;;88.00;41.17;;;;;;;;;;5031335;28;20537;-69
2023/09/02 04:32:39;;;;;;;103.40;43.22;;;;;;;;;;5031160;28;20032;-70
2023/09/02 04:35:06;;;;;;;89.47;44.33;;;;;;;;;;5031135;28;20395;-69
2023/09/02 04:37:32;;;;;;;94.63;42.05;;;;;;;;;;5030436;28;20127;-69
2023/09/02 04:39:58;;;;;;;74.50;35.60;;;;;;;;;;5030591;28;20053;-69
2023/09/02 04:42:24;;;;;;;85.97;42.17;;;;;;;;;;5030776;28;20037;-69
2023/09/02 04:44:50;;;;;;;101.93;40.92;;;;;;;;;;5031029;28;20076;-69
2023/09/02 04:47:16;;;;;;;100.50;41.25;;;;;;;;;;5030941;28;20022;-69
2023/09/02 04:49:42;;;;;;;83.22;38.97;;;;;;;;;;5030649;28;20028;-70
2023/09/02 04:52:08;;;;;;;85.88;39.78;;;;;;;;;;5030671;28;20030;-69
2023/09/02 04:54:34;;;;;;;75.55;38.60;;;;;;;;;;5030789;28;20113;-69
2023/09/02 04:57:00;;;;;;;87.07;38.63;;;;;;;;;;5030082;28;20026;-69
2023/09/02 04:59:26;;;;;;;75.93;39.65;;;;;;;;;;5030974;28;20426;-69
2023/09/02 05:01:52;;;;;;;106.78;40.13;;;;;;;;;;5030668;28;20040;-69
2023/09/02 05:04:18;;;;;;;87.30;39.10;;;;;;;;;;5030582;28;20033;-69
2023/09/02 05:06:44;;;;;;;85.65;40.17;;;;;;;;;;5030918;28;20028;-69
2023/09/02 05:09:10;;;;;;;95.00;41.45;;;;;;;;;;5030681;28;20022;-69
2023/09/02 05:11:36;;;;;;;94.15;39.22;;;;;;;;;;5030640;28;20030;-69
2023/09/02 05:14:02;;;;;;;68.95;37.85;;;;;;;;;;5013033;28;20045;-69
2023/09/02 05:16:28;;;;;;;74.63;38.20;;;;;;;;;;5030466;28;20034;-69
2023/09/02 05:18:54;;;;;;;71.90;36.88;;;;;;;;;;5030628;28;20417;-68
2023/09/02 05:21:20;;;;;;;63.83;36.05;;;;;;;;;;5030606;28;20446;-68
2023/09/02 05:23:46;;;;;;;63.20;36.05;;;;;;;;;;5030659;28;20040;-70
2023/09/02 05:26:12;;;;;;;57.53;32.20;;;;;;;;;;5030510;28;20038;-68
2023/09/02 05:28:38;;;;;;;62.28;33.10;;;;;;;;;;5030282;28;20474;-69
2023/09/02 05:31:04;;;;;;;43.15;26.83;;;;;;;;;;5030384;28;20112;-68
2023/09/02 05:33:30;;;;;;;70.00;35.00;;;;;;;;;;5030416;28;20041;-69
2023/09/02 05:35:56;;;;;;;62.05;34.85;;;;;;;;;;5030552;28;20476;-70
2023/09/02 05:38:22;;;;;;;65.55;36.13;;;;;;;;;;5030296;28;20075;-70
2023/09/02 05:40:48;;;;;;;79.70;39.50;;;;;;;;;;5030193;28;20483;-70
2023/09/02 05:43:15;;;;;;;73.07;37.85;;;;;;;;;;5030764;28;20387;-70
2023/09/02 05:45:41;;;;;;;84.50;38.47;;;;;;;;;;5030501;28;20164;-70
2023/09/02 05:48:07;;;;;;;80.80;41.63;;;;;;;;;;5031689;28;20032;-69
2023/09/02 05:50:33;;;;;;;60.42;33.60;;;;;;;;;;5034365;28;20079;-69
2023/09/02 05:53:00;;;;;;;43.13;28.20;;;;;;;;;;5033753;28;20075;-69
2023/09/02 05:55:26;;;;;;;50.67;30.50;;;;;;;;;;5033159;28;20533;-69
2023/09/02 05:57:52;;;;;;;58.47;30.40;;;;;;;;;;5033582;28;20049;-69
2023/09/02 06:00:18;;;;;;;65.90;33.47;;;;;;;;;;5033779;28;20041;-69
2023/09/02 06:02:44;;;;;;;65.43;32.25;;;;;;;;;;5033950;28;20029;-69
2023/09/02 06:05:10;;;;;;;46.55;29.83;;;;;;;;;;5033318;28;20018;-69
2023/09/02 06:07:36;;;;;;;50.90;29.92;;;;;;;;;;5033356;28;20025;-69
2023/09/02 06:10:02;;;;;;;65.22;31.50;;;;;;;;;;5033560;28;20021;-69
2023/09/02 06:12:28;;;;;;;53.10;34.30;;;;;;;;;;5033078;28;20398;-68
2023/09/02 06:14:54;;;;;;;39.42;26.38;;;;;;;;;;5033240;28;20026;-68
2023/09/02 06:17:21;;;;;;;36.10;25.10;;;;;;;;;;5033383;28;20526;-68
2023/09/02 06:19:47;;;;;;;31.38;20.58;;;;;;;;;;5033347;28;20026;-68
2023/09/02 06:22:13;;;;;;;47.47;31.55;;;;;;;;;;5033249;28;20034;-69
2023/09/02 06:24:39;;;;;;;45.72;28.88;;;;;;;;;;5033327;28;20025;-69
2023/09/02 06:27:05;;;;;;;48.85;31.13;;;;;;;;;;5032784;28;20028;-68
2023/09/02 06:29:32;;;;;;;45.20;28.48;;;;;;;;;;5033143;28;20032;-68
2023/09/02 06:31:58;;;;;;;43.50;29.48;;;;;;;;;;5033144;28;20025;-69
2023/09/02 06:34:24;;;;;;;48.35;30.80;;;;;;;;;;5032926;28;20423;-69
2023/09/02 06:36:50;;;;;;;42.38;27.73;;;;;;;;;;5032747;28;20060;-69
2023/09/02 06:39:17;;;;;;;53.35;32.33;;;;;;;;;;5032403;28;20025;-69
2023/09/02 06:41:43;;;;;;;48.03;28.75;;;;;;;;;;5033034;28;20049;-69
2023/09/02 06:44:09;;;;;;;35.17;22.80;;;;;;;;;;5032938;28;20040;-69
2023/09/02 06:46:37;;;;;;;40.83;25.73;;;;;;;;;;5032219;28;20030;-70
2023/09/02 06:49:05;;;;;;;45.15;28.25;;;;;;;;;;5033290;28;20041;-69
2023/09/02 06:51:31;;;;;;;48.08;31.15;;;;;;;;;;5032761;28;20348;-69
2023/09/02 06:53:57;;;;;;;46.03;27.38;;;;;;;;;;5032485;28;20048;-70
2023/09/02 06:56:23;;;;;;;48.92;32.13;;;;;;;;;;5032590;28;20112;-69
2023/09/02 06:58:50;;;;;;;45.60;29.05;;;;;;;;;;5031923;28;20120;-69
2023/09/02 07:01:17;;;;;;;62.22;36.53;;;;;;;;;;5031742;28;20491;-69
2023/09/02 07:03:43;;;;;;;58.35;32.50;;;;;;;;;;5032517;28;20064;-70
2023/09/02 07:06:13;;;;;;;45.40;30.92;;;;;;;;;;5032376;28;20025;-69
2023/09/02 07:08:39;;;;;;;59.25;33.63;;;;;;;;;;5032427;28;20506;-69
2023/09/02 07:11:06;;;;;;;43.17;30.20;;;;;;;;;;5032302;28;20033;-69
2023/09/02 07:13:32;;;;;;;48.80;33.63;;;;;;;;;;5031946;28;20033;-69
2023/09/02 07:16:00;;;;;;;46.83;30.55;;;;;;;;;;5032088;28;20084;-69
2023/09/02 07:18:26;;;;;;;47.55;30.45;;;;;;;;;;5032373;28;20127;-68
2023/09/02 07:20:58;;;;;;;49.05;30.08;;;;;;;;;;5032198;28;20041;-69
2023/09/02 07:23:24;;;;;;;49.53;34.25;;;;;;;;;;5032126;28;20060;-69
2023/09/02 07:25:50;;;;;;;39.53;27.67;;;;;;;;;;5032027;28;20063;-68
2023/09/02 07:28:16;;;;;;;52.92;34.25;;;;;;;;;;5031501;28;20476;-68
2023/09/02 07:30:42;;;;;;;48.15;30.65;;;;;;;;;;5031742;28;20037;-69
2023/09/02 07:33:08;;;;;;;48.75;30.77;;;;;;;;;;5031972;28;20060;-68
2023/09/02 07:35:36;;;;;;;43.28;28.65;;;;;;;;;;5031870;28;20037;-69
2023/09/02 07:38:05;;;;;;;48.85;31.30;;;;;;;;;;5031671;28;20033;-68
2023/09/02 07:40:31;;;;;;;44.13;30.40;;;;;;;;;;5031528;28;20033;-68
2023/09/02 07:42:59;;;;;;;42.78;27.83;;;;;;;;;;5031745;28;20041;-68
2023/09/02 07:45:25;;;;;;;46.63;31.50;;;;;;;;;;5031423;28;20018;-69
2023/09/02 07:47:51;;;;;;;18.67;13.63;;;;;;;;;;5031602;28;20032;-69
2023/09/02 07:50:17;;;;;;;17.30;12.70;;;;;;;;;;5031493;28;20101;-69
2023/09/02 07:52:43;;;;;;;35.55;23.55;;;;;;;;;;5031279;28;20045;-70
2023/09/02 07:55:09;;;;;;;38.58;28.20;;;;;;;;;;5031173;28;20510;-69
2023/09/02 07:57:35;;;;;;;24.35;17.75;;;;;;;;;;5030913;28;20137;-71
2023/09/02 08:00:01;;;;;;;26.45;19.08;;;;;;;;;;5031383;28;20025;-69
2023/09/02 08:02:27;;;;;;;37.40;25.98;;;;;;;;;;5013274;28;20037;-69
2023/09/02 08:04:53;;;;;;;33.67;24.73;;;;;;;;;;5031513;28;20347;-69
2023/09/02 08:07:19;;;;;;;37.05;27.40;;;;;;;;;;5030917;28;20042;-69
2023/09/02 08:09:48;;;;;;;33.05;23.83;;;;;;;;;;5031271;28;20021;-69
2023/09/02 08:12:14;;;;;;;38.30;26.52;;;;;;;;;;5030304;28;20064;-68
2023/09/02 08:14:40;;;;;;;33.78;22.17;;;;;;;;;;5031219;28;20025;-69
2023/09/02 08:17:06;;;;;;;38.38;25.92;;;;;;;;;;5030991;28;20072;-69
2023/09/02 08:19:32;;;;;;;39.35;28.27;;;;;;;;;;5030670;28;20029;-69
2023/09/02 08:21:58;;;;;;;32.15;22.90;;;;;;;;;;5031265;28;20022;-69
2023/09/02 08:24:24;;;;;;;34.33;24.55;;;;;;;;;;5031154;28;20022;-69
2023/09/02 08:26:50;;;;;;;27.30;19.73;;;;;;;;;;5030729;28;20033;-69
2023/09/02 08:29:16;;;;;;;27.52;19.48;;;;;;;;;;5030920;28;20542;-69
2023/09/02 08:31:42;;;;;;;30.48;21.40;;;;;;;;;;5013320;28;20067;-69
2023/09/02 08:34:09;;;;;;;41.08;28.35;;;;;;;;;;5031051;28;20037;-69
2023/09/02 08:36:35;;;;;;;39.22;27.73;;;;;;;;;;5030656;28;20472;-69
2023/09/02 08:39:01;;;;;;;26.77;19.85;;;;;;;;;;5030926;28;20022;-69
2023/09/02 08:41:30;;;;;;;39.45;27.83;;;;;;;;;;5030894;28;20032;-69
2023/09/02 08:43:56;;;;;;;31.88;24.65;;;;;;;;;;5013205;28;20026;-69
2023/09/02 08:46:25;;;;;;;33.17;25.35;;;;;;;;;;5030312;28;20471;-68
2023/09/02 08:48:52;;;;;;;29.77;21.70;;;;;;;;;;5031020;28;20092;-69
2023/09/02 08:51:18;;;;;;;33.50;23.45;;;;;;;;;;5030966;28;20068;-70
2023/09/02 08:53:45;;;;;;;26.35;20.30;;;;;;;;;;5030486;28;20193;-72
2023/09/02 08:56:11;;;;;;;28.38;22.33;;;;;;;;;;5030709;28;20535;-70
2023/09/02 08:58:40;;;;;;;30.73;23.83;;;;;;;;;;5012603;28;20514;-70
2023/09/02 09:01:06;;;;;;;28.88;22.77;;;;;;;;;;5030747;28;20037;-70
2023/09/02 09:03:33;;;;;;;24.85;19.88;;;;;;;;;;5030571;28;20030;-70
2023/09/02 09:06:02;;;;;;;24.33;18.55;;;;;;;;;;5030913;28;20021;-70
2023/09/02 09:08:29;;;;;;;28.52;21.17;;;;;;;;;;5030112;28;20037;-70
2023/09/02 09:10:56;;;;;;;23.13;17.95;;;;;;;;;;5030664;28;20041;-69
2023/09/02 09:13:23;;;;;;;13.63;10.15;;;;;;;;;;5030313;28;20052;-69
2023/09/02 09:15:49;;;;;;;25.65;19.40;;;;;;;;;;5030810;28;20025;-69
2023/09/02 09:18:16;;;;;;;11.85;9.70;;;;;;;;;;5030620;28;20037;-70
2023/09/02 09:20:42;;;;;;;21.33;16.35;;;;;;;;;;5030539;28;20041;-70
2023/09/02 09:23:08;;;;;;;29.08;23.52;;;;;;;;;;5031936;28;20487;-70
2023/09/02 09:25:35;;;;;;;24.77;20.65;;;;;;;;;;5016468;28;20025;-69
2023/09/02 09:28:09;;;;;;;18.85;14.57;;;;;;;;;;5034285;28;20022;-69
2023/09/02 09:30:35;;;;;;;30.55;22.33;;;;;;;;;;5034154;28;20022;-70
2023/09/02 09:33:04;;;;;;;18.95;14.23;;;;;;;;;;5033749;28;20406;-70
2023/09/02 09:35:30;;;;;;;23.08;18.58;;;;;;;;;;5034091;28;20030;-70
2023/09/02 09:37:56;;;;;;;15.23;12.07;;;;;;;;;;5034518;28;20074;-69
2023/09/02 09:40:32;;;;;;;15.75;11.55;;;;;;;;;;5033897;28;20034;-70
2023/09/02 09:43:02;;;;;;;9.02;7.22;;;;;;;;;;5016163;28;20030;-69
2023/09/02 09:45:28;;;;;;;8.18;5.82;;;;;;;;;;5033708;28;20029;-70
2023/09/02 09:47:59;;;;;;;11.38;8.50;;;;;;;;;;5033804;28;20390;-70
2023/09/02 09:50:28;;;;;;;13.10;10.70;;;;;;;;;;5034056;28;20036;-70
2023/09/02 09:53:09;;;;;;;9.63;7.13;;;;;;;;;;5033867;28;20438;-72
2023/09/02 09:55:36;;;;;;;6.28;4.68;;;;;;;;;;5034084;28;20022;-69
2023/09/02 09:58:03;;;;;;;6.93;4.90;;;;;;;;;;5033205;28;20606;-69
2023/09/02 10:00:29;;;;;;;11.60;8.82;;;;;;;;;;5033255;28;20101;-72
2023/09/02 10:02:56;;;;;;;13.77;10.48;;;;;;;;;;5033933;28;20487;-71
2023/09/02 10:05:28;;;;;;;11.82;9.15;;;;;;;;;;5033775;28;20029;-72
2023/09/02 10:08:01;;;;;;;13.20;10.13;;;;;;;;;;5033342;28;20025;-70
2023/09/02 10:10:37;;;;;;;10.98;8.10;;;;;;;;;;5033595;28;20037;-70
2023/09/02 10:13:04;;;;;;;11.18;7.57;;;;;;;;;;5033357;28;20107;-72
2023/09/02 10:15:30;;;;;;;17.27;12.25;;;;;;;;;;5033377;28;20036;-70
2023/09/02 10:18:00;;;;;;;22.73;18.67;;;;;;;;;;5033274;28;20022;-70
2023/09/02 10:20:27;;;;;;;22.40;18.80;;;;;;;;;;5033106;28;20021;-71
2023/09/02 10:22:54;;;;;;;10.32;8.80;;;;;;;;;;5033775;28;20064;-71
2023/09/02 10:25:27;;;;;;;8.60;6.85;;;;;;;;;;5033410;28;20033;-71
2023/09/02 10:28:06;;;;;;;9.90;7.57;;;;;;;;;;5033033;28;20030;-71
2023/09/02 10:30:36;;;;;;;18.95;16.35;;;;;;;;;;5033330;28;20072;-71
2023/09/02 10:33:11;;;;;;;17.10;13.43;;;;;;;;;;5032707;28;20045;-71
2023/09/02 10:35:41;;;;;;;18.05;14.45;;;;;;;;;;5032200;28;20080;-71
2023/09/02 10:38:07;;;;;;;;;;;;;;;;;;5033437;28;20021;-71
2023/09/02 10:40:38;;;;;;;20.17;15.95;;;;;;;;;;5032662;28;19982;-71
2023/09/02 10:43:07;;;;;;;12.95;9.57;;;;;;;;;;5033094;28;20482;-71
2023/09/02 10:45:33;;;;;;;12.05;9.75;;;;;;;;;;5033006;28;20030;-71
2023/09/02 10:48:00;;;;;;;13.13;10.15;;;;;;;;;;5032740;28;20663;-70
2023/09/02 10:50:26;;;;;;;16.55;13.82;;;;;;;;;;5032788;28;20529;-72
2023/09/02 10:52:53;;;;;;;15.13;12.27;;;;;;;;;;5032982;28;20407;-71
2023/09/02 10:55:22;;;;;;;8.40;6.28;;;;;;;;;;5032357;28;20087;-71
2023/09/02 10:57:52;;;;;;;10.68;8.75;;;;;;;;;;5032219;28;20483;-71
2023/09/02 11:00:18;;;;;;;;;;;;;;;;;;5033165;28;20025;-71
2023/09/02 11:02:44;;;;;;;14.52;9.88;;;;;;;;;;5032447;28;19905;-72
2023/09/02 11:05:11;;;;;;;8.07;6.72;;;;;;;;;;5032261;28;20513;-71
2023/09/02 11:07:39;;;;;;;10.23;7.07;;;;;;;;;;5032590;28;20026;-71
2023/09/02 11:10:05;;;;;;;8.23;6.32;;;;;;;;;;5014711;28;20120;-74
2023/09/02 11:12:33;;;;;;;11.20;8.00;;;;;;;;;;5032397;28;20026;-72
2023/09/02 11:15:08;;;;;;;13.23;11.10;;;;;;;;;;5032428;28;20537;-72
2023/09/02 11:17:35;;;;;;;9.07;6.40;;;;;;;;;;5032040;28;20510;-72
2023/09/02 11:20:02;;;;;;;11.45;9.50;;;;;;;;;;5032215;28;20030;-72
2023/09/02 11:22:47;;;;;;;6.90;5.72;;;;;;;;;;5032282;28;20029;-72
2023/09/02 11:25:29;;;;;;;8.18;6.05;;;;;;;;;;5032211;28;20398;-72
2023/09/02 11:27:56;;;;;;;6.40;3.88;;;;;;;;;;5031867;28;20470;-72
2023/09/02 11:30:23;;;;;;;5.72;4.13;;;;;;;;;;5031890;28;20095;-72
2023/09/02 11:32:49;;;;;;;9.65;8.38;;;;;;;;;;5031992;28;20055;-73
2023/09/02 11:35:16;;;;;;;9.35;7.40;;;;;;;;;;5032104;28;20056;-71
2023/09/02 11:37:42;;;;;;;9.88;8.05;;;;;;;;;;5031730;28;20025;-72
2023/09/02 11:40:12;;;;;;;10.18;7.25;;;;;;;;;;5031758;28;20022;-72
2023/09/02 11:42:38;;;;;;;;;;;;;;;;;;5032489;28;20067;-71
2023/09/02 11:45:05;;;;;;;5.32;3.78;;;;;;;;;;5031715;28;19940;-71
2023/09/02 11:47:31;;;;;;;10.40;6.53;;;;;;;;;;5031832;28;20033;-72
2023/09/02 11:49:57;;;;;;;8.77;6.20;;;;;;;;;;5031588;28;20472;-71
2023/09/02 11:52:23;;;;;;;6.70;5.05;;;;;;;;;;5031352;28;20097;-72
2023/09/02 11:54:49;;;;;;;8.73;6.05;;;;;;;;;;5031696;28;20029;-72
2023/09/02 11:57:18;;;;;;;9.55;7.10;;;;;;;;;;5031280;28;20049;-73
2023/09/02 11:59:44;;;;;;;8.25;6.18;;;;;;;;;;5031587;28;20058;-72
2023/09/02 12:02:12;;;;;;;9.15;5.95;;;;;;;;;;5031452;28;20021;-72
2023/09/02 12:04:38;;;;;;;8.63;7.00;;;;;;;;;;5013388;28;20423;-72
2023/09/02 12:07:05;;;;;;;9.38;6.90;;;;;;;;;;5031366;28;20032;-72
2023/09/02 12:09:31;;;;;;;8.25;6.85;;;;;;;;;;5031593;28;20040;-72
2023/09/02 12:11:58;;;;;;;8.77;7.85;;;;;;;;;;5031726;28;20083;-72
2023/09/02 12:14:24;;;;;;;8.57;7.15;;;;;;;;;;5031274;28;20104;-72
2023/09/02 12:16:51;;;;;;;8.45;7.18;;;;;;;;;;5031241;28;20033;-72
2023/09/02 12:19:17;;;;;;;7.65;5.65;;;;;;;;;;5031162;28;20029;-72
2023/09/02 12:21:43;;;;;;;10.27;6.43;;;;;;;;;;5030932;28;20431;-73
2023/09/02 12:24:09;;;;;;;8.35;5.70;;;;;;;;;;5031541;28;20029;-72
2023/09/02 12:26:45;;;;;;;6.82;4.93;;;;;;;;;;5030859;28;20117;-72
2023/09/02 12:29:15;;;;;;;6.13;4.45;;;;;;;;;;5031153;28;20116;-72
2023/09/02 12:31:44;;;;;;;;;;;;;;;;;;5031152;28;20026;-73
2023/09/02 12:34:09;;;;;;;;;;;;;;;;;;5031745;28;20441;-72
2023/09/02 12:36:35;;;;;;;;;;;;;;;;;;5031353;28;19983;-72
2023/09/02 12:39:01;;;;;;;;;;;;;;;;;;5031757;28;19909;-71
2023/09/02 12:41:27;;;;;;;;;;;;;;;;;;5031575;28;20355;-72
2023/09/02 12:43:53;;;;;;;;;;;;;;;;;;5031115;28;20371;-72
2023/09/02 12:46:19;;;;;;;;;;;;;;;;;;5031267;28;19978;-71
2023/09/02 12:48:45;;;;;;;;;;;;;;;;;;5031456;28;19928;-72
2023/09/02 12:51:11;;;;;;;;;;;;;;;;;;5031548;28;20290;-72
2023/09/02 12:53:37;;;;;;;;;;;;;;;;;;5031107;28;20002;-71
2023/09/02 12:56:03;;;;;;;;;;;;;;;;;;5031571;28;19909;-71
2023/09/02 12:58:30;;;;;;;;;;;;;;;;;;5032885;28;19917;-71
2023/09/02 13:00:59;;;;;;;;;;;;;;;;;;5035493;28;19928;-72
2023/09/02 13:03:25;;;;;;;;;;;;;;;;;;5035604;28;19905;-72
2023/09/02 13:05:51;;;;;;;;;;;;;;;;;;5034963;28;20091;-72
2023/09/02 13:08:17;;;;;;;;;;;;;;;;;;5035430;28;19912;-72
2023/09/02 13:10:43;;;;;;;;;;;;;;;;;;5035149;28;19998;-72
2023/09/02 13:13:09;;;;;;;;;;;;;;;;;;5035062;28;19919;-72
2023/09/02 13:15:35;;;;;;;;;;;;;;;;;;5035138;28;19905;-72
2023/09/02 13:18:01;;;;;;;;;;;;;;;;;;5034826;28;19999;-72
2023/09/02 13:20:27;;;;;;;;;;;;;;;;;;5034998;28;20294;-72
2023/09/02 13:22:53;;;;;;;;;;;;;;;;;;5034650;28;19905;-73
2023/09/02 13:25:19;;;;;;;;;;;;;;;;;;5034991;28;19980;-70
2023/09/02 13:27:45;;;;;;;;;;;;;;;;;;5017183;28;19945;-72
2023/09/02 13:30:11;;;;;;;;;;;;;;;;;;5034967;28;20370;-72
2023/09/02 13:32:37;;;;;;;;;;;;;;;;;;5034551;28;19912;-72
2023/09/02 13:35:03;;;;;;;;;;;;;;;;;;5035118;28;19959;-72
2023/09/02 13:37:29;;;;;;;;;;;;;;;;;;5034479;28;19992;-72
2023/09/02 13:39:55;;;;;;;;;;;;;;;;;;5016931;28;20330;-72
2023/09/02 13:42:21;;;;;;;;;;;;;;;;;;5034820;28;19905;-72
2023/09/02 13:44:47;;;;;;;;;;;;;;;;;;5034422;28;20352;-72
2023/09/02 13:47:13;;;;;;;;;;;;;;;;;;5034497;28;19944;-72
2023/09/02 13:49:40;;;;;;;;;;;;;;;;;;5034697;28;20323;-72
2023/09/02 13:52:06;;;;;;;;;;;;;;;;;;5034279;28;20020;-72
2023/09/02 13:54:32;;;;;;;;;;;;;;;;;;5033979;28;19996;-71
2023/09/02 13:56:58;;;;;;;;;;;;;;;;;;5034589;28;19937;-72
2023/09/02 13:59:24;;;;;;;;;;;;;;;;;;5034349;28;19905;-71
2023/09/02 14:01:50;;;;;;;;;;;;;;;;;;5034379;28;19909;-72
2023/09/02 14:04:16;;;;;;;;;;;;;;;;;;5034233;28;19912;-72
2023/09/02 14:06:42;;;;;;;;;;;;;;;;;;5034017;28;19905;-71
2023/09/02 14:09:08;;;;;;;;;;;;;;;;;;5033872;28;19912;-72
2023/09/02 14:11:34;;;;;;;;;;;;;;;;;;5033424;28;19905;-72
2023/09/02 14:14:00;;;;;;;;;;;;;;;;;;5034105;28;19999;-71
2023/09/02 14:16:27;;;;;;;;;;;;;;;;;;5033606;28;19905;-71
2023/09/02 14:18:53;;;;;;;;;;;;;;;;;;5033793;28;20479;-72
2023/09/02 14:21:19;;;;;;;;;;;;;;;;;;5033687;28;19987;-71
2023/09/02 14:23:45;;;;;;;;;;;;;;;;;;5033705;28;19912;-72
2023/09/02 14:26:11;;;;;;;;;;;;;;;;;;5032853;28;19947;-72
2023/09/02 14:28:37;;;;;;;;;;;;;;;;;;5033686;28;19905;-72
2023/09/02 14:31:03;;;;;;;;;;;;;;;;;;5033775;28;19913;-72
2023/09/02 14:33:29;;;;;;;;;;;;;;;;;;5033531;28;19913;-72
2023/09/02 14:35:55;;;;;;;;;;;;;;;;;;5033699;28;19959;-72
2023/09/02 14:38:21;;;;;;;;;;;;;;;;;;5033840;28;19913;-72